createdAt,value
2022-10-21T00:03:27.129Z,7.07
2022-10-21T00:08:29.110Z,8.10
2022-10-21T00:13:33.675Z,9.05
2022-10-21T00:18:37.730Z,6.95
2022-10-21T00:23:40.831Z,8.27
2022-10-21T00:28:43.446Z,7.53
2022-10-21T00:33:45.124Z,7.22
2022-10-21T00:38:48.577Z,8.02
2022-10-21T00:44:02.281Z,10.98
2022-10-21T00:49:39.624Z,7.57
2022-10-21T00:54:43.196Z,9.45
2022-10-21T00:59:49.574Z,8.23
2022-10-21T01:04:54.725Z,8.18
2022-10-21T01:09:56.497Z,14.35
2022-10-21T01:15:21.950Z,9.80
2022-10-21T01:20:41.921Z,8.32
2022-10-21T01:26:19.483Z,8.70
2022-10-21T01:31:48.138Z,8.90
2022-10-21T01:37:13.586Z,8.55
2022-10-21T01:42:20.527Z,9.07
2022-10-21T01:47:32.257Z,10.02
2022-10-21T01:52:35.049Z,9.98
2022-10-21T01:57:43.910Z,9.65
2022-10-21T02:02:49.914Z,8.60
2022-10-21T02:07:51.986Z,8.98
2022-10-21T02:12:56.965Z,8.80
2022-10-21T02:18:08.595Z,9.35
2022-10-21T02:23:15.333Z,8.95
2022-10-21T02:28:18.884Z,8.20
2022-10-21T02:33:27.890Z,8.80
2022-10-21T02:38:46.755Z,8.68
2022-10-21T02:43:59.233Z,11.63
2022-10-21T02:49:00.991Z,8.60
2022-10-21T02:54:02.713Z,9.50
2022-10-21T02:59:04.343Z,9.07
2022-10-21T03:04:07.550Z,13.07
2022-10-21T03:09:09.528Z,10.05
2022-10-21T03:14:11.594Z,11.77
2022-10-21T03:19:13.717Z,12.68
2022-10-21T03:24:27.914Z,12.20
2022-10-21T03:29:30.608Z,10.55
2022-10-21T03:34:32.240Z,9.63
2022-10-21T03:39:33.944Z,9.52
2022-10-21T03:44:36.018Z,9.77
2022-10-21T03:49:37.795Z,8.93
2022-10-21T03:54:39.483Z,14.18
2022-10-21T03:59:41.351Z,15.52
2022-10-21T04:04:42.974Z,9.32
2022-10-21T04:09:44.630Z,8.20
2022-10-21T04:14:46.238Z,9.07
2022-10-21T04:19:48.058Z,13.60
2022-10-21T04:24:49.933Z,9.20
2022-10-21T04:29:51.566Z,9.45
2022-10-21T04:34:53.329Z,9.75
2022-10-21T04:39:57.410Z,9.05
2022-10-21T04:44:59.210Z,9.77
2022-10-21T04:50:00.819Z,7.97
2022-10-21T04:55:02.592Z,8.32
2022-10-21T05:00:07.503Z,7.93
2022-10-21T05:05:10.588Z,8.23
2022-10-21T05:10:12.254Z,8.48
2022-10-21T05:15:14.647Z,8.93
2022-10-21T05:20:16.575Z,8.60
2022-10-21T05:25:18.454Z,8.70
2022-10-21T05:30:20.072Z,12.50
2022-10-21T05:35:22.105Z,9.45
2022-10-21T05:40:24.194Z,9.23
2022-10-21T05:45:27.070Z,9.80
2022-10-21T05:50:28.719Z,10.75
2022-10-21T05:55:30.466Z,8.70
2022-10-21T06:00:32.510Z,9.00
2022-10-21T06:05:35.232Z,9.15
2022-10-21T06:10:36.988Z,13.52
2022-10-21T06:15:38.647Z,9.18
2022-10-21T06:20:40.254Z,9.05
2022-10-21T06:25:44.169Z,11.45
2022-10-21T06:30:47.407Z,14.38
2022-10-21T06:35:49.261Z,11.25
2022-10-21T06:40:50.865Z,9.38
2022-10-21T06:45:58.631Z,9.32
2022-10-21T06:51:09.560Z,9.63
2022-10-21T06:56:17.189Z,12.68
2022-10-21T07:01:34.897Z,9.37
2022-10-21T07:06:43.422Z,10.80
2022-10-21T07:11:45.008Z,11.02
2022-10-21T07:16:49.076Z,11.80
2022-10-21T07:21:50.895Z,10.02
2022-10-21T07:26:52.972Z,12.73
2022-10-21T07:31:54.564Z,11.48
2022-10-21T07:36:56.335Z,12.95
2022-10-21T07:41:58.420Z,11.40
2022-10-21T07:47:00.106Z,12.43
2022-10-21T07:52:02.662Z,13.23
2022-10-21T07:57:04.350Z,12.45
2022-10-21T08:02:06.143Z,9.77
2022-10-21T08:07:10.306Z,10.55
2022-10-21T08:12:15.487Z,11.13
2022-10-21T08:17:17.539Z,11.02
2022-10-21T08:22:19.775Z,11.45
2022-10-21T08:27:21.388Z,11.07
2022-10-21T08:32:23.127Z,11.80
2022-10-21T08:37:25.756Z,11.00
2022-10-21T08:42:27.984Z,10.73
2022-10-21T08:47:45.922Z,11.23
2022-10-21T08:53:13.760Z,10.73
2022-10-21T08:58:21.823Z,10.02
2022-10-21T09:03:39.151Z,9.80
2022-10-21T09:08:57.435Z,9.95
2022-10-21T09:14:24.528Z,12.63
2022-10-21T09:19:43.501Z,11.68
2022-10-21T09:25:17.600Z,9.73
2022-10-21T09:30:24.535Z,9.52
2022-10-21T09:35:48.387Z,10.73
2022-10-21T09:40:59.299Z,11.02
2022-10-21T09:46:00.999Z,11.43
2022-10-21T09:51:14.074Z,13.48
2022-10-21T09:56:24.802Z,11.52
2022-10-21T10:01:29.362Z,13.20
2022-10-21T10:06:42.666Z,10.55
2022-10-21T10:12:02.850Z,11.13
2022-10-21T10:17:31.912Z,10.52
2022-10-21T10:22:38.906Z,9.73
2022-10-21T10:27:59.816Z,10.38
2022-10-21T10:33:14.084Z,14.23
2022-10-21T10:38:42.571Z,16.80
2022-10-21T10:48:52.689Z,9.60
2022-10-21T10:54:06.522Z,12.02
2022-10-21T10:59:23.562Z,9.48
2022-10-21T11:10:02.037Z,8.60
2022-10-21T11:15:04.045Z,8.95
2022-10-21T11:20:15.785Z,12.00
2022-10-21T11:25:26.992Z,9.15
2022-10-21T11:30:36.967Z,12.05
2022-10-21T11:35:59.010Z,8.10
2022-10-21T11:41:31.769Z,8.35
2022-10-21T11:46:46.904Z,7.55
2022-10-21T11:51:48.568Z,7.50
2022-10-21T11:57:41.459Z,6.97
2022-10-21T12:03:23.736Z,7.47
2022-10-21T12:08:31.067Z,6.70
2022-10-21T12:13:38.084Z,7.93
2022-10-21T12:18:44.550Z,8.98
2022-10-21T12:23:54.047Z,8.75
2022-10-21T12:29:07.378Z,11.80
2022-10-21T12:34:11.498Z,12.38
2022-10-21T12:39:35.212Z,8.85
2022-10-21T12:44:38.150Z,9.73
2022-10-21T12:49:43.600Z,9.65
2022-10-21T12:54:58.249Z,6.88
2022-10-21T13:00:28.405Z,8.38
2022-10-21T13:05:36.517Z,6.15
2022-10-21T13:10:40.565Z,8.23
2022-10-21T13:15:46.241Z,6.88
2022-10-21T13:20:57.136Z,10.15
2022-10-21T13:26:12.334Z,6.80
2022-10-21T13:31:21.192Z,7.53
2022-10-21T13:41:43.448Z,12.80
2022-10-21T13:46:45.058Z,6.82
2022-10-21T13:51:47.097Z,5.60
2022-10-21T13:56:48.826Z,8.75
2022-10-21T14:01:53.346Z,5.22
2022-10-21T14:07:05.647Z,5.25
2022-10-21T14:12:18.249Z,5.18
2022-10-21T14:17:26.207Z,6.85
2022-10-21T14:22:31.093Z,5.55
2022-10-21T14:27:35.037Z,5.25
2022-10-21T14:32:37.661Z,5.60
2022-10-21T14:37:49.581Z,7.75
2022-10-21T14:42:53.322Z,7.22
2022-10-21T14:48:24.041Z,5.50
2022-10-21T14:53:27.841Z,6.53
2022-10-21T14:58:34.626Z,5.90
2022-10-21T15:03:58.156Z,6.07
2022-10-21T15:09:10.476Z,7.28
2022-10-21T15:14:21.007Z,7.30
2022-10-21T15:19:40.621Z,8.38
2022-10-21T15:24:45.144Z,7.18
2022-10-21T15:29:48.754Z,7.53
2022-10-21T15:34:52.081Z,7.88
2022-10-21T15:39:53.673Z,7.47
2022-10-21T15:44:55.340Z,6.20
2022-10-21T15:49:58.330Z,7.72
2022-10-21T15:55:00.094Z,7.05
2022-10-21T16:00:02.242Z,6.88
2022-10-21T16:05:06.390Z,6.68
2022-10-21T16:10:22.405Z,7.43
2022-10-21T16:15:25.134Z,10.20
2022-10-21T16:20:30.249Z,6.70
2022-10-21T16:25:33.486Z,8.27
2022-10-21T16:30:37.521Z,11.85
2022-10-21T16:35:39.152Z,11.13
2022-10-21T16:40:40.921Z,10.98
2022-10-21T16:45:43.998Z,16.35
2022-10-21T16:50:46.479Z,8.75
2022-10-21T16:55:48.371Z,9.15
2022-10-21T17:00:50.954Z,6.53
2022-10-21T17:05:52.679Z,7.68
2022-10-21T17:10:55.065Z,6.68
2022-10-21T17:15:56.654Z,6.22
2022-10-21T17:20:58.451Z,7.15
2022-10-21T17:26:00.194Z,9.10
2022-10-21T17:31:01.911Z,8.20
2022-10-21T17:36:03.763Z,8.65
2022-10-21T17:41:06.184Z,8.20
2022-10-21T17:46:09.932Z,7.68
2022-10-21T17:51:11.723Z,16.50
2022-10-21T17:56:13.553Z,29.85
2022-10-21T18:01:15.264Z,32.20
2022-10-21T18:06:17.088Z,19.52
2022-10-21T18:11:20.618Z,8.95
2022-10-21T18:16:23.767Z,8.70
2022-10-21T18:21:25.600Z,9.52
2022-10-21T18:26:30.716Z,9.35
2022-10-21T18:31:35.551Z,10.07
2022-10-21T18:36:37.411Z,10.85
2022-10-21T18:41:39.630Z,12.73
2022-10-21T18:46:43.086Z,14.25
2022-10-21T18:51:45.386Z,11.32
2022-10-21T18:56:48.595Z,10.73
2022-10-21T19:01:50.770Z,10.68
2022-10-21T19:06:54.734Z,12.77
2022-10-21T19:11:56.577Z,11.43
2022-10-21T19:16:58.937Z,10.18
2022-10-21T19:22:00.621Z,18.08
2022-10-21T19:27:02.306Z,12.25
2022-10-21T19:32:04.080Z,10.55
2022-10-21T19:37:06.772Z,11.20
2022-10-21T19:42:08.453Z,16.25
2022-10-21T19:47:10.183Z,10.70
2022-10-21T19:52:11.758Z,12.45
2022-10-21T19:57:13.535Z,11.32
2022-10-21T20:02:15.338Z,15.32
2022-10-21T20:07:16.981Z,17.60
2022-10-21T20:12:19.202Z,18.17
2022-10-21T20:17:20.912Z,12.30
2022-10-21T20:22:24.613Z,13.77
2022-10-21T20:27:26.725Z,26.15
2022-10-21T20:32:28.337Z,18.60
2022-10-21T20:37:30.006Z,14.90
2022-10-21T20:42:31.646Z,13.90
2022-10-21T20:47:33.234Z,15.05
2022-10-21T20:52:34.995Z,13.93
2022-10-21T20:57:40.364Z,16.40
2022-10-21T21:02:42.221Z,14.93
2022-10-21T21:07:43.853Z,13.50
2022-10-21T21:12:45.483Z,16.30
2022-10-21T21:17:51.012Z,14.07
2022-10-21T21:22:52.967Z,12.27
2022-10-21T21:27:54.563Z,12.35
2022-10-21T21:32:56.207Z,11.85
2022-10-21T21:37:58.085Z,12.10
2022-10-21T21:42:59.671Z,12.40
2022-10-21T21:48:01.438Z,16.80
2022-10-21T21:53:03.097Z,13.30
2022-10-21T21:58:05.482Z,12.95
2022-10-21T22:03:07.150Z,14.00
2022-10-21T22:08:10.101Z,13.00
2022-10-21T22:13:12.802Z,14.00
2022-10-21T22:18:14.993Z,15.40
2022-10-21T22:23:17.270Z,14.07
2022-10-21T22:28:18.936Z,16.77
2022-10-21T22:33:21.033Z,15.88
2022-10-21T22:38:23.247Z,14.27
2022-10-21T22:43:26.204Z,15.60
2022-10-21T22:48:27.892Z,14.48
2022-10-21T22:53:29.546Z,15.60
2022-10-21T22:58:31.609Z,16.40
2022-10-21T23:03:33.330Z,13.40
2022-10-21T23:08:35.160Z,15.73
2022-10-21T23:13:36.819Z,13.25
2022-10-21T23:18:38.481Z,13.85
2022-10-21T23:23:40.221Z,16.15
2022-10-21T23:28:42.022Z,13.63
2022-10-21T23:33:43.692Z,13.93
2022-10-21T23:38:45.417Z,13.20
2022-10-21T23:43:47.057Z,13.52
2022-10-21T23:48:48.756Z,14.05
2022-10-21T23:53:50.483Z,14.00
2022-10-21T23:58:52.814Z,16.33
